createdAt,value
2023-01-26T00:01:19.196Z,98282.66
2023-01-26T00:03:46.497Z,98289.34
2023-01-26T00:06:15.801Z,98272.28
2023-01-26T00:08:45.098Z,98282.13
2023-01-26T00:11:14.206Z,98275.94
2023-01-26T00:13:41.384Z,98276.78
2023-01-26T00:16:13.680Z,98258.78
2023-01-26T00:18:42.729Z,98259.88
2023-01-26T00:21:13.675Z,98256.88
2023-01-26T00:23:40.475Z,98258.88
2023-01-26T00:26:11.368Z,98238.31
2023-01-26T00:28:38.110Z,98252.84
2023-01-26T00:31:06.706Z,98254.34
2023-01-26T00:33:33.828Z,98251.00
2023-01-26T00:36:00.585Z,98227.00
2023-01-26T00:38:27.549Z,98233.06
2023-01-26T00:40:54.406Z,98227.00
2023-01-26T00:43:21.587Z,98228.53
2023-01-26T00:45:49.525Z,98230.56
2023-01-26T00:48:16.695Z,98218.19
2023-01-26T00:50:43.542Z,98207.38
2023-01-26T00:53:10.883Z,98208.22
2023-01-26T00:55:37.545Z,98212.16
2023-01-26T00:58:06.703Z,98178.66
2023-01-26T01:00:35.282Z,98218.66
2023-01-26T01:03:02.412Z,98218.06
2023-01-26T01:05:30.488Z,98227.66
2023-01-26T01:07:57.839Z,98235.59
2023-01-26T01:10:27.773Z,98239.72
2023-01-26T01:12:55.411Z,98222.50
2023-01-26T01:15:22.191Z,98236.44
2023-01-26T01:17:49.071Z,98202.59
2023-01-26T01:20:16.291Z,98212.16
2023-01-26T01:22:43.023Z,98195.72
2023-01-26T01:25:10.184Z,98199.53
2023-01-26T01:27:36.593Z,98215.22
2023-01-26T01:30:07.914Z,98203.13
2023-01-26T01:32:36.436Z,98167.78
2023-01-26T01:35:04.102Z,98185.47
2023-01-26T01:37:30.982Z,98192.31
2023-01-26T01:39:57.717Z,98206.41
2023-01-26T01:42:26.120Z,98204.34
2023-01-26T01:45:26.907Z,98203.13
2023-01-26T01:48:03.743Z,98202.00
2023-01-26T01:50:37.300Z,98208.75
2023-01-26T01:53:04.670Z,98197.22
2023-01-26T01:55:32.203Z,98186.97
2023-01-26T01:58:01.848Z,98189.69
2023-01-26T02:00:29.535Z,98188.91
2023-01-26T02:03:11.975Z,98157.41
2023-01-26T02:05:54.367Z,98176.88
2023-01-26T02:08:25.955Z,98171.47
2023-01-26T02:10:55.549Z,98158.22
2023-01-26T02:13:24.153Z,98158.72
2023-01-26T02:15:52.105Z,98166.09
2023-01-26T02:18:19.277Z,98106.03
2023-01-26T02:21:02.937Z,98156.31
2023-01-26T02:23:42.462Z,98147.72
2023-01-26T02:26:12.296Z,98136.72
2023-01-26T02:28:40.212Z,98101.09
2023-01-26T02:31:08.214Z,98127.22
2023-01-26T02:33:35.322Z,98107.81
2023-01-26T02:36:03.512Z,98102.22
2023-01-26T02:38:42.726Z,98104.09
2023-01-26T02:41:13.189Z,98099.09
2023-01-26T02:43:41.054Z,98079.41
2023-01-26T02:46:07.683Z,98068.63
2023-01-26T02:48:53.074Z,98095.06
2023-01-26T02:51:19.780Z,98067.38
2023-01-26T02:53:46.600Z,98095.66
2023-01-26T02:56:13.386Z,98102.22
2023-01-26T02:58:39.999Z,98072.59
2023-01-26T03:01:06.828Z,98103.16
2023-01-26T03:03:42.550Z,98078.84
2023-01-26T03:06:10.974Z,98109.97
2023-01-26T03:08:38.989Z,98115.72
2023-01-26T03:11:07.322Z,98108.84
2023-01-26T03:13:34.249Z,98075.22
2023-01-26T03:16:07.217Z,98111.56
2023-01-26T03:18:55.334Z,98074.59
2023-01-26T03:21:41.323Z,98102.22
2023-01-26T03:24:32.109Z,98066.06
2023-01-26T03:27:18.801Z,98071.81
2023-01-26T03:29:46.581Z,98055.41
2023-01-26T03:32:13.891Z,98104.09
2023-01-26T03:34:40.681Z,98075.03
2023-01-26T03:37:07.417Z,98111.53
2023-01-26T03:39:52.841Z,98138.50
2023-01-26T03:42:38.211Z,98130.16
2023-01-26T03:45:25.033Z,98143.66
2023-01-26T03:48:10.129Z,98125.75
2023-01-26T03:50:55.843Z,98126.75
2023-01-26T03:53:44.497Z,98138.84
2023-01-26T03:56:27.452Z,98143.31
2023-01-26T03:58:56.268Z,98145.69
2023-01-26T04:01:28.331Z,98141.16
2023-01-26T04:04:15.650Z,98145.06
2023-01-26T04:07:02.981Z,98136.28
2023-01-26T04:09:30.316Z,98147.47
2023-01-26T04:11:59.314Z,98153.78
2023-01-26T04:14:49.692Z,98152.44
2023-01-26T04:17:37.629Z,98151.72
2023-01-26T04:20:24.994Z,98173.59
2023-01-26T04:22:51.857Z,98171.53
2023-01-26T04:25:20.511Z,98134.06
2023-01-26T04:27:47.141Z,98167.88
2023-01-26T04:30:19.143Z,98169.88
2023-01-26T04:32:49.257Z,98168.81
2023-01-26T04:35:16.277Z,98171.59
2023-01-26T04:37:43.626Z,98178.84
2023-01-26T04:40:11.878Z,98186.66
2023-01-26T04:42:39.033Z,98185.06
2023-01-26T04:45:06.492Z,98191.31
2023-01-26T04:47:33.128Z,98168.31
2023-01-26T04:49:59.800Z,98184.03
2023-01-26T04:52:27.002Z,98183.06
2023-01-26T04:54:53.718Z,98175.88
2023-01-26T04:57:21.168Z,98169.91
2023-01-26T04:59:49.270Z,98178.25
2023-01-26T05:02:16.024Z,98177.34
2023-01-26T05:04:42.636Z,98180.28
2023-01-26T05:07:09.354Z,98174.44
2023-01-26T05:09:35.983Z,98182.41
2023-01-26T05:12:22.657Z,98184.94
2023-01-26T05:14:49.975Z,98180.28
2023-01-26T05:17:16.778Z,98195.06
2023-01-26T05:19:43.424Z,98195.63
2023-01-26T05:22:12.519Z,98202.59
2023-01-26T05:24:39.366Z,98171.34
2023-01-26T05:27:21.776Z,98203.69
2023-01-26T05:29:55.039Z,98211.59
2023-01-26T05:32:22.252Z,98191.50
2023-01-26T05:34:49.231Z,98206.03
2023-01-26T05:37:16.274Z,98223.06
2023-01-26T05:39:42.993Z,98203.06
2023-01-26T05:42:12.147Z,98208.25
2023-01-26T05:44:39.570Z,98213.91
2023-01-26T05:47:06.378Z,98199.28
2023-01-26T05:49:32.954Z,98224.72
2023-01-26T05:51:59.735Z,98211.53
2023-01-26T05:54:26.494Z,98236.13
2023-01-26T05:56:53.633Z,98238.28
2023-01-26T05:59:20.140Z,98221.19
2023-01-26T06:01:46.781Z,98232.91
2023-01-26T06:04:13.480Z,98247.81
2023-01-26T06:06:40.165Z,98239.34
2023-01-26T06:09:07.446Z,98239.28
2023-01-26T06:11:34.407Z,98244.88
2023-01-26T06:14:01.320Z,98247.50
2023-01-26T06:16:28.318Z,98249.31
2023-01-26T06:18:55.386Z,98262.28
2023-01-26T06:21:22.295Z,98249.91
2023-01-26T06:23:49.123Z,98256.03
2023-01-26T06:26:16.242Z,98266.53
2023-01-26T06:28:42.997Z,98239.28
2023-01-26T06:31:10.937Z,98270.09
2023-01-26T06:33:38.842Z,98287.31
2023-01-26T06:36:13.430Z,98289.50
2023-01-26T06:38:46.297Z,98280.44
2023-01-26T06:41:12.881Z,98282.31
2023-01-26T06:43:39.707Z,98289.16
2023-01-26T06:46:07.183Z,98296.69
2023-01-26T06:48:35.578Z,98288.50
2023-01-26T06:51:44.247Z,98289.50
2023-01-26T06:54:12.908Z,98278.44
2023-01-26T06:56:40.410Z,98296.22
2023-01-26T06:59:07.607Z,98295.03
2023-01-26T07:01:38.039Z,98302.06
2023-01-26T07:04:04.913Z,98277.69
2023-01-26T07:06:31.417Z,98289.81
2023-01-26T07:08:58.080Z,98298.97
2023-01-26T07:11:26.339Z,98306.91
2023-01-26T07:13:52.920Z,98302.56
2023-01-26T07:16:19.545Z,98324.78
2023-01-26T07:18:46.184Z,98326.38
2023-01-26T07:21:16.192Z,98321.16
2023-01-26T07:23:42.941Z,98284.16
2023-01-26T07:26:09.915Z,98317.97
2023-01-26T07:28:38.655Z,98325.50
2023-01-26T07:31:08.695Z,98322.16
2023-01-26T07:33:36.114Z,98283.47
2023-01-26T07:36:04.078Z,98285.31
2023-01-26T07:38:31.130Z,98319.38
2023-01-26T07:40:58.375Z,98321.53
2023-01-26T07:43:25.026Z,98336.56
2023-01-26T07:45:53.948Z,98337.47
2023-01-26T07:48:28.394Z,98339.16
2023-01-26T07:50:58.358Z,98321.31
2023-01-26T07:53:26.497Z,98354.91
2023-01-26T07:55:53.433Z,98364.13
2023-01-26T07:58:20.448Z,98342.38
2023-01-26T08:00:47.366Z,98328.94
2023-01-26T08:03:14.512Z,98316.44
2023-01-26T08:05:43.293Z,98322.31
2023-01-26T08:08:10.292Z,98302.22
2023-01-26T08:10:37.228Z,98330.53
2023-01-26T08:13:04.184Z,98337.38
2023-01-26T08:15:31.337Z,98328.00
2023-01-26T08:18:03.886Z,98355.09
2023-01-26T08:20:31.365Z,98352.84
2023-01-26T08:23:00.265Z,98359.59
2023-01-26T08:25:27.287Z,98341.19
2023-01-26T08:27:57.067Z,98352.56
2023-01-26T08:30:24.831Z,98349.75
2023-01-26T08:32:51.949Z,98314.38
2023-01-26T08:35:18.753Z,98335.28
2023-01-26T08:37:45.461Z,98326.66
2023-01-26T08:40:13.034Z,98313.09
2023-01-26T08:42:39.976Z,98332.38
2023-01-26T08:45:07.230Z,98350.28
2023-01-26T08:47:34.049Z,98310.84
2023-01-26T08:50:00.704Z,98349.44
2023-01-26T08:52:27.540Z,98330.84
2023-01-26T08:54:54.514Z,98331.69
2023-01-26T08:57:21.854Z,98341.75
2023-01-26T08:59:48.393Z,98346.09
2023-01-26T09:02:15.165Z,98342.91
2023-01-26T09:04:42.135Z,98344.25
2023-01-26T09:07:10.211Z,98359.81
2023-01-26T09:09:37.826Z,98369.38
2023-01-26T09:12:05.057Z,98366.50
2023-01-26T09:14:31.731Z,98350.88
2023-01-26T09:16:58.463Z,98363.00
2023-01-26T09:19:25.157Z,98360.16
2023-01-26T09:21:55.009Z,98364.53
2023-01-26T09:24:22.341Z,98366.88
2023-01-26T09:26:48.907Z,98359.81
2023-01-26T09:29:16.570Z,98337.56
2023-01-26T09:31:43.356Z,98365.16
2023-01-26T09:34:10.004Z,98364.84
2023-01-26T09:36:41.544Z,98374.41
2023-01-26T09:39:08.863Z,98375.72
2023-01-26T09:42:11.169Z,98380.75
2023-01-26T09:44:48.452Z,98365.53
2023-01-26T09:47:33.943Z,98369.72
2023-01-26T09:50:18.148Z,98367.88
2023-01-26T09:52:56.828Z,98377.47
2023-01-26T09:55:24.885Z,98370.94
2023-01-26T09:57:59.808Z,98373.06
2023-01-26T10:00:35.599Z,98373.56
2023-01-26T10:03:40.443Z,98372.22
2023-01-26T10:06:23.316Z,98383.09
2023-01-26T10:08:50.299Z,98364.09
2023-01-26T10:11:32.446Z,98371.00
2023-01-26T10:14:17.848Z,98358.31
2023-01-26T10:16:48.666Z,98369.53
2023-01-26T10:19:39.981Z,98364.09
2023-01-26T10:22:17.215Z,98359.16
2023-01-26T10:24:49.392Z,98360.81
2023-01-26T10:27:16.003Z,98362.81
2023-01-26T10:29:42.708Z,98349.25
2023-01-26T10:32:18.447Z,98351.94
2023-01-26T10:34:50.224Z,98359.78
2023-01-26T10:37:29.896Z,98359.22
2023-01-26T10:40:10.937Z,98356.03
2023-01-26T10:42:38.730Z,98362.69
2023-01-26T10:45:27.920Z,98356.03
2023-01-26T10:48:16.914Z,98351.75
2023-01-26T10:50:44.182Z,98338.81
2023-01-26T10:53:29.803Z,98349.94
2023-01-26T10:56:04.652Z,98360.00
2023-01-26T10:58:52.937Z,98356.66
2023-01-26T11:01:23.233Z,98357.66
2023-01-26T11:04:07.773Z,98347.44
2023-01-26T11:06:35.439Z,98344.56
2023-01-26T11:09:11.001Z,98338.91
2023-01-26T11:11:37.817Z,98336.78
2023-01-26T11:14:19.855Z,98341.41
2023-01-26T11:16:53.898Z,98334.44
2023-01-26T11:19:39.501Z,98328.13
2023-01-26T11:22:09.293Z,98335.94
2023-01-26T11:25:08.041Z,98331.44
2023-01-26T11:27:51.705Z,98335.13
2023-01-26T11:30:54.576Z,98328.84
2023-01-26T11:33:35.571Z,98322.47
2023-01-26T11:36:30.437Z,98320.59
2023-01-26T11:39:03.131Z,98323.63
2023-01-26T11:41:42.028Z,98328.50
2023-01-26T11:44:24.299Z,98316.13
2023-01-26T11:47:17.011Z,98313.78
2023-01-26T11:50:24.472Z,98313.50
2023-01-26T11:52:56.532Z,98306.25
2023-01-26T11:55:26.289Z,98308.91
2023-01-26T11:58:05.718Z,98303.63
2023-01-26T12:00:41.008Z,98287.75
2023-01-26T12:03:20.945Z,98294.81
2023-01-26T12:05:52.438Z,98283.25
2023-01-26T12:08:26.315Z,98292.00
2023-01-26T12:11:22.863Z,98272.84
2023-01-26T12:14:08.606Z,98274.38
2023-01-26T12:17:15.526Z,98270.44
2023-01-26T12:20:04.972Z,98271.25
2023-01-26T12:22:58.226Z,98272.25
2023-01-26T12:25:31.330Z,98271.25
2023-01-26T12:28:31.584Z,98258.19
2023-01-26T12:31:26.767Z,98252.25
2023-01-26T12:33:55.988Z,98252.41
2023-01-26T12:36:40.923Z,98260.84
2023-01-26T12:39:13.531Z,98260.50
2023-01-26T12:42:19.060Z,98259.84
2023-01-26T12:44:56.976Z,98248.97
2023-01-26T12:47:40.447Z,98239.88
2023-01-26T12:50:21.528Z,98244.28
2023-01-26T12:53:06.388Z,98241.75
2023-01-26T12:55:42.044Z,98244.34
2023-01-26T12:58:29.778Z,98223.91
2023-01-26T13:01:03.212Z,98236.44
2023-01-26T13:03:38.516Z,98234.13
2023-01-26T13:06:11.193Z,98249.94
2023-01-26T13:08:37.641Z,98249.72
2023-01-26T13:11:09.661Z,98246.81
2023-01-26T13:13:54.419Z,98255.13
2023-01-26T13:16:22.130Z,98253.75
2023-01-26T13:18:52.023Z,98240.28
2023-01-26T13:21:40.602Z,98244.94
2023-01-26T13:24:16.187Z,98252.16
2023-01-26T13:26:47.155Z,98252.84
2023-01-26T13:29:25.760Z,98243.34
2023-01-26T13:31:54.910Z,98247.44
2023-01-26T13:34:49.358Z,98253.09
2023-01-26T13:37:30.989Z,98246.56
2023-01-26T13:40:02.354Z,98247.19
2023-01-26T13:42:52.046Z,98244.28
2023-01-26T13:45:28.779Z,98250.78
2023-01-26T13:47:58.088Z,98256.53
2023-01-26T13:50:33.405Z,98252.75
2023-01-26T13:53:00.606Z,98252.59
2023-01-26T13:55:30.725Z,98260.44
2023-01-26T13:58:23.780Z,98253.31
2023-01-26T14:01:02.172Z,98247.66
2023-01-26T14:03:31.078Z,98249.50
2023-01-26T14:06:20.018Z,98251.31
2023-01-26T14:08:55.973Z,98245.66
2023-01-26T14:11:25.119Z,98262.41
2023-01-26T14:13:56.217Z,98257.22
2023-01-26T14:16:35.764Z,98256.63
2023-01-26T14:19:18.442Z,98248.31
2023-01-26T14:21:47.978Z,98253.50
2023-01-26T14:24:14.587Z,98250.09
2023-01-26T14:26:42.359Z,98245.31
2023-01-26T14:29:20.342Z,98231.09
2023-01-26T14:31:50.631Z,98235.78
2023-01-26T14:34:29.329Z,98256.88
2023-01-26T14:37:16.728Z,98256.19
2023-01-26T14:39:46.084Z,98240.13
2023-01-26T14:42:15.600Z,98229.09
2023-01-26T14:44:42.767Z,98241.47
2023-01-26T14:47:21.670Z,98249.50
2023-01-26T14:49:56.195Z,98253.19
2023-01-26T14:52:31.505Z,98243.13
2023-01-26T14:55:04.487Z,98224.66
2023-01-26T14:57:33.032Z,98193.72
2023-01-26T15:00:02.133Z,98226.75
2023-01-26T15:02:38.295Z,98216.97
2023-01-26T15:05:14.658Z,98226.66
2023-01-26T15:07:41.345Z,98222.97
2023-01-26T15:10:39.303Z,98216.38
2023-01-26T15:13:19.692Z,98214.19
2023-01-26T15:15:49.309Z,98208.69
2023-01-26T15:18:21.426Z,98208.94
2023-01-26T15:21:10.886Z,98199.31
2023-01-26T15:23:51.837Z,98196.63
2023-01-26T15:26:33.082Z,98161.31
2023-01-26T15:29:04.407Z,98190.22
2023-01-26T15:31:39.246Z,98187.03
2023-01-26T15:34:07.454Z,98191.81
2023-01-26T15:39:14.410Z,98164.34
2023-01-26T15:41:42.559Z,98135.41
2023-01-26T15:44:17.948Z,98150.28
2023-01-26T15:46:46.454Z,98145.28
2023-01-26T15:49:14.376Z,98159.44
2023-01-26T15:51:41.503Z,98162.94
2023-01-26T15:54:11.418Z,98163.81
2023-01-26T15:56:38.291Z,98136.19
2023-01-26T15:59:05.388Z,98177.50
2023-01-26T16:01:32.460Z,98175.38
2023-01-26T16:03:59.489Z,98168.16
2023-01-26T16:06:31.952Z,98158.88
2023-01-26T16:08:59.413Z,98154.59
2023-01-26T16:11:31.724Z,98148.09
2023-01-26T16:14:03.888Z,98144.22
2023-01-26T16:16:32.594Z,98140.13
2023-01-26T16:18:59.795Z,98136.00
2023-01-26T16:21:31.521Z,98134.44
2023-01-26T16:23:58.495Z,98129.69
2023-01-26T16:26:26.024Z,98125.78
2023-01-26T16:28:52.596Z,98118.41
2023-01-26T16:31:30.912Z,98112.44
2023-01-26T16:33:58.621Z,98108.13
2023-01-26T16:36:25.378Z,98096.09
2023-01-26T16:38:51.964Z,98084.53
2023-01-26T16:41:27.839Z,98072.34
2023-01-26T16:43:56.802Z,98061.53
2023-01-26T16:46:24.103Z,98055.09
2023-01-26T16:48:51.120Z,98043.38
2023-01-26T16:51:25.127Z,98048.19
2023-01-26T16:53:52.414Z,98033.03
2023-01-26T16:56:19.533Z,98043.84
2023-01-26T16:58:56.339Z,98043.00
2023-01-26T17:01:36.879Z,98029.53
2023-01-26T17:04:04.465Z,98019.53
2023-01-26T17:06:31.505Z,98005.34
2023-01-26T17:08:58.184Z,98012.19
2023-01-26T17:11:28.080Z,97996.72
2023-01-26T17:13:57.125Z,97990.41
2023-01-26T17:16:29.694Z,97997.38
2023-01-26T17:18:56.551Z,97987.84
2023-01-26T17:21:23.847Z,97969.66
2023-01-26T17:23:52.397Z,97963.84
2023-01-26T17:26:20.847Z,97957.81
2023-01-26T17:28:49.462Z,97944.66
2023-01-26T17:31:18.255Z,97939.28
2023-01-26T17:33:47.071Z,97930.00
2023-01-26T17:36:15.007Z,97919.97
2023-01-26T17:38:42.185Z,97925.53
2023-01-26T17:41:08.975Z,97928.88
2023-01-26T17:43:35.775Z,97930.00
2023-01-26T17:46:13.462Z,97927.03
2023-01-26T17:48:41.098Z,97922.22
2023-01-26T17:51:09.928Z,97941.94
2023-01-26T17:53:38.486Z,97933.59
2023-01-26T17:56:08.258Z,97922.59
2023-01-26T17:58:38.145Z,97927.22
2023-01-26T18:01:06.515Z,97921.09
2023-01-26T18:03:33.889Z,97917.94
2023-01-26T18:06:00.642Z,97916.38
2023-01-26T18:08:27.637Z,97919.44
2023-01-26T18:11:01.539Z,97907.22
2023-01-26T18:13:29.195Z,97896.19
2023-01-26T18:15:56.012Z,97900.91
2023-01-26T18:18:24.261Z,97890.69
2023-01-26T18:20:50.949Z,97890.81
2023-01-26T18:23:17.975Z,97878.03
2023-01-26T18:25:44.785Z,97860.63
2023-01-26T18:28:12.238Z,97862.13
2023-01-26T18:30:39.030Z,97878.63
2023-01-26T18:33:07.206Z,97867.69
2023-01-26T18:35:34.565Z,97855.06
2023-01-26T18:38:02.264Z,97861.19
2023-01-26T18:40:29.156Z,97847.53
2023-01-26T18:42:56.701Z,97851.56
2023-01-26T18:45:24.040Z,97849.31
2023-01-26T18:47:50.887Z,97847.88
2023-01-26T18:50:18.091Z,97857.69
2023-01-26T18:52:44.878Z,97850.06
2023-01-26T18:55:12.007Z,97856.06
2023-01-26T18:57:39.066Z,97838.38
2023-01-26T19:00:08.296Z,97848.41
2023-01-26T19:02:38.292Z,97836.41
2023-01-26T19:05:07.213Z,97834.63
2023-01-26T19:07:34.405Z,97848.63
2023-01-26T19:10:01.031Z,97844.69
2023-01-26T19:12:27.773Z,97835.78
2023-01-26T19:14:54.465Z,97819.66
2023-01-26T19:17:21.129Z,97828.63
2023-01-26T19:19:47.839Z,97836.03
2023-01-26T19:22:14.468Z,97854.38
2023-01-26T19:24:43.035Z,97843.97
2023-01-26T19:27:10.030Z,97851.59
2023-01-26T19:29:36.566Z,97846.56
2023-01-26T19:32:03.283Z,97840.97
2023-01-26T19:34:31.915Z,97831.19
2023-01-26T19:36:58.798Z,97834.47
2023-01-26T19:39:25.297Z,97796.75
2023-01-26T19:41:52.521Z,97838.63
2023-01-26T19:44:19.442Z,97844.38
2023-01-26T19:46:46.234Z,97850.03
2023-01-26T19:49:13.565Z,97848.16
2023-01-26T19:51:40.116Z,97842.13
2023-01-26T19:54:06.793Z,97836.31
2023-01-26T19:56:36.479Z,97834.88
2023-01-26T19:59:08.563Z,97812.97
2023-01-26T20:01:34.989Z,97806.66
2023-01-26T20:04:05.213Z,97824.03
2023-01-26T20:06:34.487Z,97805.13
2023-01-26T20:09:05.996Z,97787.66
2023-01-26T20:11:32.783Z,97820.59
2023-01-26T20:14:01.984Z,97820.00
2023-01-26T20:16:29.703Z,97817.75
2023-01-26T20:18:57.786Z,97812.22
2023-01-26T20:21:25.226Z,97805.59
2023-01-26T20:23:55.445Z,97819.09
2023-01-26T20:26:23.467Z,97809.06
2023-01-26T20:28:49.967Z,97829.34
2023-01-26T20:31:20.028Z,97822.63
2023-01-26T20:33:48.416Z,97829.47
2023-01-26T20:36:18.268Z,97838.28
2023-01-26T20:38:46.476Z,97839.66
2023-01-26T20:41:16.876Z,97838.63
2023-01-26T20:43:58.058Z,97816.66
2023-01-26T20:46:26.125Z,97827.97
2023-01-26T20:48:55.808Z,97840.94
2023-01-26T20:51:24.693Z,97834.97
2023-01-26T20:53:51.474Z,97838.09
2023-01-26T20:56:21.001Z,97838.69
2023-01-26T20:58:49.067Z,97843.88
2023-01-26T21:01:17.032Z,97842.84
2023-01-26T21:03:44.450Z,97847.81
2023-01-26T21:06:14.119Z,97844.09
2023-01-26T21:08:40.885Z,97838.34
2023-01-26T21:11:11.325Z,97835.56
2023-01-26T21:13:41.173Z,97845.66
2023-01-26T21:16:10.537Z,97836.56
2023-01-26T21:18:37.166Z,97843.63
2023-01-26T21:21:08.489Z,97831.19
2023-01-26T21:23:35.706Z,97839.88
2023-01-26T21:26:17.189Z,97831.28
2023-01-26T21:28:44.316Z,97832.91
2023-01-26T21:31:16.560Z,97835.38
2023-01-26T21:33:45.695Z,97822.69
2023-01-26T21:36:17.339Z,97820.09
2023-01-26T21:38:45.858Z,97826.59
2023-01-26T21:41:33.389Z,97839.88
2023-01-26T21:44:02.215Z,97832.22
2023-01-26T21:46:29.376Z,97844.41
2023-01-26T21:48:56.328Z,97846.84
2023-01-26T21:51:42.044Z,97845.09
2023-01-26T21:54:08.614Z,97836.88
2023-01-26T21:56:36.673Z,97835.00
2023-01-26T21:59:07.750Z,97832.69
2023-01-26T22:01:37.165Z,97835.78
2023-01-26T22:04:08.110Z,97825.00
2023-01-26T22:06:35.912Z,97821.16
2023-01-26T22:09:03.791Z,97834.13
2023-01-26T22:11:30.398Z,97839.84
2023-01-26T22:13:57.247Z,97828.13
2023-01-26T22:16:23.937Z,97826.88
2023-01-26T22:18:50.696Z,97826.56
2023-01-26T22:21:18.829Z,97811.03
2023-01-26T22:23:47.326Z,97808.84
2023-01-26T22:26:19.762Z,97820.00
2023-01-26T22:28:54.027Z,97826.88
2023-01-26T22:31:25.470Z,97814.53
2023-01-26T22:33:52.930Z,97798.72
2023-01-26T22:36:20.606Z,97801.59
2023-01-26T22:38:47.373Z,97781.16
2023-01-26T22:41:19.734Z,97801.16
2023-01-26T22:43:51.553Z,97797.19
2023-01-26T22:46:20.195Z,97800.53
2023-01-26T22:48:47.340Z,97778.38
2023-01-26T22:51:20.647Z,97786.25
2023-01-26T22:53:49.762Z,97772.16
2023-01-26T22:56:16.750Z,97764.25
2023-01-26T22:58:57.009Z,97780.53
2023-01-26T23:01:26.299Z,97787.91
2023-01-26T23:03:54.752Z,97775.25
2023-01-26T23:06:22.387Z,97770.56
2023-01-26T23:08:49.825Z,97773.63
2023-01-26T23:11:16.731Z,97747.06
2023-01-26T23:13:44.638Z,97753.25
2023-01-26T23:16:11.985Z,97767.16
2023-01-26T23:18:39.176Z,97773.03
2023-01-26T23:21:07.209Z,97774.78
2023-01-26T23:23:36.729Z,97774.50
2023-01-26T23:26:04.022Z,97780.63
2023-01-26T23:28:33.470Z,97766.31
2023-01-26T23:31:01.438Z,97772.56
2023-01-26T23:33:30.101Z,97768.84
2023-01-26T23:36:00.590Z,97757.41
2023-01-26T23:38:28.947Z,97760.53
2023-01-26T23:40:55.762Z,97763.22
2023-01-26T23:43:23.268Z,97772.56
2023-01-26T23:45:50.618Z,97762.59
2023-01-26T23:48:18.592Z,97777.56
2023-01-26T23:50:46.284Z,97757.00
2023-01-26T23:53:13.210Z,97767.59
2023-01-26T23:55:41.811Z,97775.47
2023-01-26T23:58:09.670Z,97759.28
